Time;durP1;ratioP1;P1;durP2;ratioP2;P2;SDS_P1;SDS_P2;PMS_P1;PMS_P2;Temp;Humidity;BMP_temperature;BMP_pressure;BME280_temperature;BME280_humidity;BME280_pressure;Samples;Min_cycle;Max_cycle;Signal;HPM_P1;HPM_P2
2022/03/03 00:01:36;;;;;;;0.00;0.00;;;;;;;;;;4945470;29;20669;-72
2022/03/03 00:04:04;;;;;;;0.13;0.13;;;;;;;;;;4945544;29;20215;-70
2022/03/03 00:06:31;;;;;;;1.60;1.50;;;;;;;;;;4936076;28;20203;-71
2022/03/03 00:08:59;;;;;;;0.23;0.23;;;;;;;;;;4939356;28;20217;-72
2022/03/03 00:11:26;;;;;;;0.67;0.67;;;;;;;;;;4939010;28;20203;-70
2022/03/03 00:13:55;;;;;;;1.27;0.50;;;;;;;;;;4935735;29;20207;-72
2022/03/03 00:16:22;;;;;;;0.00;0.00;;;;;;;;;;4936248;28;20206;-71
2022/03/03 00:18:50;;;;;;;0.10;0.10;;;;;;;;;;4935970;28;20230;-69
2022/03/03 00:21:18;;;;;;;0.30;0.30;;;;;;;;;;4935371;29;20209;-70
2022/03/03 00:23:45;;;;;;;1.70;1.37;;;;;;;;;;4935910;29;20690;-70
2022/03/03 00:26:13;;;;;;;1.03;0.60;;;;;;;;;;4934113;28;20555;-70
2022/03/03 00:28:41;;;;;;;0.00;0.00;;;;;;;;;;4938864;28;20238;-71
2022/03/03 00:31:09;;;;;;;3.30;2.03;;;;;;;;;;4936709;28;20211;-72
2022/03/03 00:33:37;;;;;;;0.53;0.53;;;;;;;;;;4935379;28;20561;-71
2022/03/03 00:36:04;;;;;;;1.50;0.87;;;;;;;;;;4935479;28;20207;-70
2022/03/03 00:38:32;;;;;;;3.60;2.93;;;;;;;;;;4939924;28;20222;-71
2022/03/03 00:40:59;;;;;;;0.83;0.83;;;;;;;;;;4936041;28;20218;-70
2022/03/03 00:43:26;;;;;;;0.63;0.63;;;;;;;;;;4937954;29;20191;-71
2022/03/03 00:45:54;;;;;;;2.17;2.07;;;;;;;;;;4942643;28;20203;-72
2022/03/03 00:48:23;;;;;;;1.33;1.33;;;;;;;;;;4945242;28;20203;-71
2022/03/03 00:50:50;;;;;;;1.10;1.00;;;;;;;;;;4943666;28;20212;-71
2022/03/03 00:53:18;;;;;;;0.00;0.00;;;;;;;;;;4944216;28;20234;-72
2022/03/03 00:55:45;;;;;;;0.30;0.20;;;;;;;;;;4942645;28;20203;-72
2022/03/03 00:58:12;;;;;;;0.40;0.20;;;;;;;;;;4935278;28;20744;-72
2022/03/03 01:00:40;;;;;;;0.00;0.00;;;;;;;;;;4943802;29;20691;-72
2022/03/03 01:03:07;;;;;;;1.50;1.03;;;;;;;;;;4944477;29;20679;-72
2022/03/03 01:05:36;;;;;;;1.03;1.03;;;;;;;;;;4943451;28;20206;-70
2022/03/03 01:08:04;;;;;;;2.43;1.20;;;;;;;;;;4946091;29;20210;-71
2022/03/03 01:10:31;;;;;;;0.43;0.43;;;;;;;;;;4943443;29;20206;-71
2022/03/03 01:12:59;;;;;;;0.47;0.27;;;;;;;;;;4943861;29;20221;-71
2022/03/03 01:15:26;;;;;;;0.73;0.70;;;;;;;;;;4942819;29;21109;-72
2022/03/03 01:17:53;;;;;;;0.00;0.00;;;;;;;;;;4943852;29;20223;-72
2022/03/03 01:20:21;;;;;;;0.00;0.00;;;;;;;;;;4945789;29;20209;-71
2022/03/03 01:22:50;;;;;;;3.13;0.97;;;;;;;;;;4944779;29;20207;-71
2022/03/03 01:25:17;;;;;;;2.27;1.93;;;;;;;;;;4943873;28;20621;-72
2022/03/03 01:27:45;;;;;;;1.63;1.20;;;;;;;;;;4942397;29;20653;-72
2022/03/03 01:30:13;;;;;;;0.73;0.73;;;;;;;;;;4943813;29;20215;-72
2022/03/03 01:32:40;;;;;;;0.10;0.10;;;;;;;;;;4945094;29;20207;-71
2022/03/03 01:35:08;;;;;;;0.97;0.97;;;;;;;;;;4944337;29;20230;-72
2022/03/03 01:37:36;;;;;;;0.93;0.93;;;;;;;;;;4945544;28;20203;-72
2022/03/03 01:40:05;;;;;;;1.77;1.67;;;;;;;;;;4944891;29;20199;-70
2022/03/03 01:42:32;;;;;;;0.53;0.53;;;;;;;;;;4944217;28;20203;-70
2022/03/03 01:45:00;;;;;;;0.43;0.43;;;;;;;;;;4948160;28;20688;-71
2022/03/03 01:47:28;;;;;;;1.07;0.43;;;;;;;;;;4943059;29;20588;-71
2022/03/03 01:49:57;;;;;;;1.63;1.60;;;;;;;;;;4943656;28;20203;-72
2022/03/03 01:52:24;;;;;;;0.10;0.10;;;;;;;;;;4944417;29;20211;-72
2022/03/03 01:54:52;;;;;;;2.37;2.23;;;;;;;;;;4943482;28;20231;-71
2022/03/03 01:57:22;;;;;;;0.53;0.53;;;;;;;;;;4943390;28;20214;-70
2022/03/03 01:59:50;;;;;;;0.00;0.00;;;;;;;;;;4944004;29;20230;-71
2022/03/03 02:02:17;;;;;;;0.00;0.00;;;;;;;;;;4944235;29;20199;-71
2022/03/03 02:04:45;;;;;;;0.70;0.70;;;;;;;;;;4944901;28;20214;-72
2022/03/03 02:07:12;;;;;;;0.00;0.00;;;;;;;;;;4942766;28;20203;-71
2022/03/03 02:09:41;;;;;;;2.07;0.83;;;;;;;;;;4943921;28;20203;-70
2022/03/03 02:12:08;;;;;;;0.40;0.40;;;;;;;;;;4945159;28;20211;-71
2022/03/03 02:14:44;;;;;;;1.20;0.40;;;;;;;;;;4943864;29;20233;-71
2022/03/03 02:17:12;;;;;;;0.93;0.93;;;;;;;;;;4939751;29;20798;-72
2022/03/03 02:19:39;;;;;;;0.00;0.00;;;;;;;;;;4940318;28;20234;-71
2022/03/03 02:22:09;;;;;;;2.50;2.40;;;;;;;;;;4941355;29;20670;-72
2022/03/03 02:24:36;;;;;;;0.00;0.00;;;;;;;;;;4940277;29;20266;-71
2022/03/03 02:27:04;;;;;;;0.17;0.17;;;;;;;;;;4937263;28;20199;-71
2022/03/03 02:29:32;;;;;;;0.17;0.17;;;;;;;;;;4934604;28;20214;-71
2022/03/03 02:32:00;;;;;;;0.30;0.30;;;;;;;;;;4935734;28;20210;-70
2022/03/03 02:34:27;;;;;;;3.23;1.40;;;;;;;;;;4938797;28;20226;-71
2022/03/03 02:36:54;;;;;;;0.00;0.00;;;;;;;;;;4938649;28;20203;-71
2022/03/03 02:39:23;;;;;;;0.00;0.00;;;;;;;;;;4936736;28;20230;-71
2022/03/03 02:41:51;;;;;;;0.00;0.00;;;;;;;;;;4938160;28;20648;-71
2022/03/03 02:44:18;;;;;;;0.00;0.00;;;;;;;;;;4936079;28;20548;-70
2022/03/03 02:46:46;;;;;;;0.00;0.00;;;;;;;;;;4935064;29;20565;-71
2022/03/03 02:49:13;;;;;;;0.00;0.00;;;;;;;;;;4934995;29;20199;-72
2022/03/03 02:51:40;;;;;;;0.07;0.07;;;;;;;;;;4935571;29;20660;-72
2022/03/03 02:54:08;;;;;;;0.00;0.00;;;;;;;;;;4936590;28;20603;-71
2022/03/03 02:57:53;;;;;;;0.00;0.00;;;;;;;;;;4936271;29;20839;-69
2022/03/03 02:59:25;;;;;;;0.00;0.00;;;;;;;;;;4937326;29;21739;-70
2022/03/03 03:01:53;;;;;;;0.10;0.10;;;;;;;;;;4937411;29;20675;-70
2022/03/03 03:04:20;;;;;;;0.00;0.00;;;;;;;;;;4934915;28;20672;-71
2022/03/03 03:06:48;;;;;;;0.00;0.00;;;;;;;;;;4937417;29;20211;-69
2022/03/03 03:09:16;;;;;;;0.17;0.17;;;;;;;;;;4937022;29;20250;-71
2022/03/03 03:11:45;;;;;;;0.23;0.23;;;;;;;;;;4939012;29;20199;-72
2022/03/03 03:14:12;;;;;;;3.40;3.20;;;;;;;;;;4942340;28;20218;-72
2022/03/03 03:16:40;;;;;;;0.03;0.03;;;;;;;;;;4941922;28;20199;-71
2022/03/03 03:19:09;;;;;;;0.00;0.00;;;;;;;;;;4941782;28;20242;-70
2022/03/03 03:21:36;;;;;;;0.37;0.37;;;;;;;;;;4947029;28;20202;-69
2022/03/03 03:24:03;;;;;;;0.00;0.00;;;;;;;;;;4947040;29;20687;-70
2022/03/03 03:26:31;;;;;;;0.00;0.00;;;;;;;;;;4947413;29;20214;-71
2022/03/03 03:29:00;;;;;;;0.00;0.00;;;;;;;;;;4947759;29;20199;-69
2022/03/03 03:31:27;;;;;;;0.00;0.00;;;;;;;;;;4949702;29;20203;-71
2022/03/03 03:33:55;;;;;;;0.00;0.00;;;;;;;;;;4946462;28;20214;-71
2022/03/03 03:36:22;;;;;;;0.00;0.00;;;;;;;;;;4947778;29;20207;-71
2022/03/03 03:38:49;;;;;;;0.00;0.00;;;;;;;;;;4945985;29;20245;-71
2022/03/03 03:41:17;;;;;;;0.00;0.00;;;;;;;;;;4947159;29;20217;-72
2022/03/03 03:43:44;;;;;;;0.00;0.00;;;;;;;;;;4947527;28;20206;-71
2022/03/03 03:46:13;;;;;;;0.00;0.00;;;;;;;;;;4959459;28;20217;-73
2022/03/03 03:48:41;;;;;;;0.00;0.00;;;;;;;;;;4956729;29;20195;-73
2022/03/03 03:51:08;;;;;;;0.00;0.00;;;;;;;;;;4956546;29;20290;-72
2022/03/03 03:53:36;;;;;;;0.10;0.10;;;;;;;;;;4955666;28;20720;-72
2022/03/03 03:56:03;;;;;;;0.00;0.00;;;;;;;;;;4954815;28;20213;-72
2022/03/03 03:58:31;;;;;;;0.00;0.00;;;;;;;;;;4955595;28;20230;-71
2022/03/03 04:00:58;;;;;;;0.20;0.20;;;;;;;;;;4955662;28;20199;-70
2022/03/03 04:03:27;;;;;;;0.73;0.73;;;;;;;;;;4945608;28;20222;-70
2022/03/03 04:05:54;;;;;;;0.00;0.00;;;;;;;;;;4945482;29;20199;-70
2022/03/03 04:08:22;;;;;;;2.90;2.80;;;;;;;;;;4946347;28;20199;-71
2022/03/03 04:10:49;;;;;;;0.40;0.40;;;;;;;;;;4947271;29;20576;-70
2022/03/03 04:13:16;;;;;;;0.23;0.20;;;;;;;;;;4946626;28;20209;-70
2022/03/03 04:15:44;;;;;;;0.00;0.00;;;;;;;;;;4944973;29;20195;-69
2022/03/03 04:18:11;;;;;;;0.00;0.00;;;;;;;;;;4937221;28;20633;-70
2022/03/03 04:20:41;;;;;;;0.00;0.00;;;;;;;;;;4938320;29;20211;-72
2022/03/03 04:23:08;;;;;;;0.00;0.00;;;;;;;;;;4938126;28;20250;-69
2022/03/03 04:25:36;;;;;;;1.10;1.10;;;;;;;;;;4940156;29;20286;-70
2022/03/03 04:28:03;;;;;;;0.80;0.77;;;;;;;;;;4941820;28;20242;-70
2022/03/03 04:30:31;;;;;;;6.80;4.30;;;;;;;;;;4938468;28;20196;-70
2022/03/03 04:32:59;;;;;;;0.50;0.50;;;;;;;;;;4938416;28;20215;-69
2022/03/03 04:35:26;;;;;;;2.53;1.00;;;;;;;;;;4937669;29;20199;-70
2022/03/03 04:37:55;;;;;;;1.60;1.27;;;;;;;;;;4937550;28;20203;-71
2022/03/03 04:40:23;;;;;;;0.07;0.07;;;;;;;;;;4938808;29;20227;-72
2022/03/03 04:42:51;;;;;;;0.00;0.00;;;;;;;;;;4939273;29;20191;-70
2022/03/03 04:45:18;;;;;;;0.73;0.73;;;;;;;;;;4937127;28;20318;-71
2022/03/03 04:47:45;;;;;;;0.00;0.00;;;;;;;;;;4939097;29;20206;-72
2022/03/03 04:50:13;;;;;;;0.00;0.00;;;;;;;;;;4936592;28;20199;-70
2022/03/03 04:52:40;;;;;;;0.30;0.30;;;;;;;;;;4938442;29;20576;-70
2022/03/03 04:55:10;;;;;;;1.70;0.63;;;;;;;;;;4936595;28;20255;-70
2022/03/03 04:57:37;;;;;;;0.13;0.13;;;;;;;;;;4938295;28;20211;-71
2022/03/03 05:00:07;;;;;;;0.00;0.00;;;;;;;;;;4940565;29;20239;-71
2022/03/03 05:02:34;;;;;;;0.00;0.00;;;;;;;;;;4938929;29;20600;-71
2022/03/03 05:05:01;;;;;;;0.00;0.00;;;;;;;;;;4937008;29;20195;-70
2022/03/03 05:07:29;;;;;;;0.00;0.00;;;;;;;;;;4940112;29;20195;-70
2022/03/03 05:09:56;;;;;;;0.00;0.00;;;;;;;;;;4937906;29;20199;-69
2022/03/03 05:12:25;;;;;;;0.00;0.00;;;;;;;;;;4938464;28;20203;-71
2022/03/03 05:14:52;;;;;;;0.37;0.37;;;;;;;;;;4938190;28;20191;-72
2022/03/03 05:17:20;;;;;;;1.13;1.13;;;;;;;;;;4940010;29;20214;-71
2022/03/03 05:19:47;;;;;;;2.17;1.60;;;;;;;;;;4938558;29;20223;-70
2022/03/03 05:22:14;;;;;;;1.20;0.70;;;;;;;;;;4939120;28;20202;-72
2022/03/03 05:24:42;;;;;;;0.87;0.87;;;;;;;;;;4943725;28;20681;-71
2022/03/03 05:27:11;;;;;;;2.40;2.20;;;;;;;;;;4946238;28;20199;-71
2022/03/03 05:29:39;;;;;;;0.20;0.20;;;;;;;;;;4954986;29;20250;-72
2022/03/03 05:32:07;;;;;;;2.57;1.00;;;;;;;;;;4954779;29;20213;-70
2022/03/03 05:34:34;;;;;;;0.00;0.00;;;;;;;;;;4954334;28;20210;-71
2022/03/03 05:37:02;;;;;;;0.40;0.40;;;;;;;;;;4953360;29;20214;-70
2022/03/03 05:39:30;;;;;;;2.43;1.87;;;;;;;;;;4953752;28;20234;-71
2022/03/03 05:41:58;;;;;;;1.43;0.93;;;;;;;;;;4954182;29;20203;-71
2022/03/03 05:44:25;;;;;;;2.03;1.20;;;;;;;;;;4951359;28;20199;-70
2022/03/03 05:46:56;;;;;;;1.50;1.40;;;;;;;;;;4945506;28;20203;-71
2022/03/03 05:49:24;;;;;;;1.20;1.20;;;;;;;;;;4945755;29;20207;-71
2022/03/03 05:51:51;;;;;;;5.23;4.83;;;;;;;;;;4946221;29;20199;-71
2022/03/03 05:54:19;;;;;;;2.53;1.40;;;;;;;;;;4944098;28;20238;-71
2022/03/03 05:56:48;;;;;;;0.50;0.40;;;;;;;;;;4953189;28;20203;-72
2022/03/03 05:59:16;;;;;;;0.00;0.00;;;;;;;;;;4952932;28;20326;-72
2022/03/03 06:01:45;;;;;;;0.30;0.30;;;;;;;;;;4945054;28;20645;-72
2022/03/03 06:04:16;;;;;;;0.00;0.00;;;;;;;;;;4950594;28;20198;-72
2022/03/03 06:06:46;;;;;;;0.00;0.00;;;;;;;;;;4951410;29;20199;-71
2022/03/03 06:09:15;;;;;;;2.63;2.43;;;;;;;;;;4953240;28;20207;-72
2022/03/03 06:11:47;;;;;;;0.30;0.30;;;;;;;;;;4949109;29;20592;-72
2022/03/03 06:14:16;;;;;;;0.53;0.53;;;;;;;;;;4943344;28;20731;-70
2022/03/03 06:16:44;;;;;;;0.00;0.00;;;;;;;;;;4944995;29;20195;-72
2022/03/03 06:19:11;;;;;;;0.00;0.00;;;;;;;;;;4947913;29;20223;-72
2022/03/03 06:21:40;;;;;;;0.00;0.00;;;;;;;;;;4951030;29;20784;-72
2022/03/03 06:24:08;;;;;;;0.00;0.00;;;;;;;;;;4955455;28;20203;-71
2022/03/03 06:26:36;;;;;;;0.00;0.00;;;;;;;;;;4953058;29;20656;-72
2022/03/03 06:29:04;;;;;;;0.13;0.13;;;;;;;;;;4952860;28;20206;-70
2022/03/03 06:31:31;;;;;;;0.10;0.10;;;;;;;;;;4952618;28;20203;-70
2022/03/03 06:33:59;;;;;;;0.20;0.07;;;;;;;;;;4949778;28;20209;-70
2022/03/03 06:36:27;;;;;;;0.50;0.50;;;;;;;;;;4947325;28;20208;-71
2022/03/03 06:38:55;;;;;;;0.53;0.53;;;;;;;;;;4943897;29;20195;-71
2022/03/03 06:41:24;;;;;;;0.67;0.67;;;;;;;;;;4945376;28;20207;-70
2022/03/03 06:43:52;;;;;;;0.13;0.13;;;;;;;;;;4942753;28;20207;-71
2022/03/03 06:46:21;;;;;;;1.50;1.40;;;;;;;;;;4943369;28;20207;-72
2022/03/03 06:48:48;;;;;;;0.97;0.97;;;;;;;;;;4950058;29;20563;-72
2022/03/03 06:51:17;;;;;;;0.00;0.00;;;;;;;;;;4952198;28;20199;-73
2022/03/03 06:53:47;;;;;;;0.00;0.00;;;;;;;;;;4950099;28;20616;-73
2022/03/03 06:56:16;;;;;;;0.53;0.47;;;;;;;;;;4952798;28;20676;-72
2022/03/03 06:58:43;;;;;;;0.00;0.00;;;;;;;;;;4953533;28;20286;-73
2022/03/03 07:01:12;;;;;;;0.00;0.00;;;;;;;;;;4950922;28;20239;-73
2022/03/03 07:03:41;;;;;;;0.00;0.00;;;;;;;;;;4952850;28;20214;-73
2022/03/03 07:06:08;;;;;;;0.00;0.00;;;;;;;;;;4953455;29;20195;-73
2022/03/03 07:08:36;;;;;;;0.00;0.00;;;;;;;;;;4953163;29;20202;-71
2022/03/03 07:11:05;;;;;;;0.00;0.00;;;;;;;;;;4949480;28;20231;-71
2022/03/03 07:13:34;;;;;;;0.00;0.00;;;;;;;;;;4952397;28;20215;-72
2022/03/03 07:16:13;;;;;;;0.00;0.00;;;;;;;;;;4953460;28;20199;-72
2022/03/03 07:18:44;;;;;;;0.00;0.00;;;;;;;;;;4953140;28;20206;-73
2022/03/03 07:21:14;;;;;;;0.00;0.00;;;;;;;;;;4947180;28;20598;-71
2022/03/03 07:23:46;;;;;;;0.00;0.00;;;;;;;;;;4953027;28;20558;-73
2022/03/03 07:26:15;;;;;;;0.00;0.00;;;;;;;;;;4953158;28;20199;-72
2022/03/03 07:28:47;;;;;;;0.00;0.00;;;;;;;;;;4953271;29;20199;-72
2022/03/03 07:31:17;;;;;;;0.00;0.00;;;;;;;;;;4950036;28;20238;-72
2022/03/03 07:33:48;;;;;;;0.00;0.00;;;;;;;;;;4949002;28;20187;-73
2022/03/03 07:36:19;;;;;;;0.00;0.00;;;;;;;;;;4952498;28;20207;-71
2022/03/03 07:38:51;;;;;;;0.17;0.17;;;;;;;;;;4950169;28;20200;-72
2022/03/03 07:41:19;;;;;;;0.00;0.00;;;;;;;;;;4943831;28;20246;-72
2022/03/03 07:43:48;;;;;;;0.63;0.63;;;;;;;;;;4941588;28;20751;-72
2022/03/03 07:46:16;;;;;;;0.10;0.10;;;;;;;;;;4947295;29;20270;-72
2022/03/03 07:48:45;;;;;;;0.00;0.00;;;;;;;;;;4946053;28;20579;-70
2022/03/03 07:51:12;;;;;;;0.33;0.33;;;;;;;;;;4942386;28;20599;-72
2022/03/03 07:53:39;;;;;;;2.83;1.83;;;;;;;;;;4942414;28;20352;-71
2022/03/03 07:56:07;;;;;;;1.60;0.87;;;;;;;;;;4949872;29;20222;-71
2022/03/03 07:58:40;;;;;;;1.30;1.00;;;;;;;;;;4942332;28;20200;-73
2022/03/03 08:01:10;;;;;;;0.43;0.43;;;;;;;;;;4946639;29;20242;-79
2022/03/03 08:03:38;;;;;;;2.70;1.87;;;;;;;;;;4950358;28;20195;-76
2022/03/03 08:06:06;;;;;;;0.87;0.67;;;;;;;;;;4951157;28;20221;-78
2022/03/03 08:08:34;;;;;;;0.60;0.60;;;;;;;;;;4953457;28;20633;-76
2022/03/03 08:11:04;;;;;;;0.37;0.37;;;;;;;;;;4953014;29;20265;-79
2022/03/03 08:13:31;;;;;;;0.33;0.33;;;;;;;;;;4953543;28;20681;-75
2022/03/03 08:15:59;;;;;;;0.60;0.53;;;;;;;;;;4952362;29;20203;-74
2022/03/03 08:18:32;;;;;;;0.23;0.23;;;;;;;;;;4951989;29;20211;-77
2022/03/03 08:21:01;;;;;;;0.93;0.93;;;;;;;;;;4951187;28;20226;-77
2022/03/03 08:23:29;;;;;;;0.87;0.87;;;;;;;;;;4952827;29;20199;-77
2022/03/03 08:25:57;;;;;;;1.43;1.17;;;;;;;;;;4954506;29;20341;-77
2022/03/03 08:28:25;;;;;;;1.23;1.20;;;;;;;;;;4952069;28;20660;-78
2022/03/03 08:30:56;;;;;;;1.37;1.23;;;;;;;;;;4952215;29;20229;-74
2022/03/03 08:33:30;;;;;;;0.87;0.67;;;;;;;;;;4950050;29;20668;-74
2022/03/03 08:36:01;;;;;;;1.10;1.03;;;;;;;;;;4948262;29;20576;-79
2022/03/03 08:38:32;;;;;;;0.27;0.27;;;;;;;;;;4952998;28;20202;-78
2022/03/03 08:41:01;;;;;;;1.30;1.30;;;;;;;;;;4943029;28;20215;-75
2022/03/03 08:43:29;;;;;;;1.67;1.53;;;;;;;;;;4944061;28;20778;-77
2022/03/03 08:45:58;;;;;;;0.20;0.20;;;;;;;;;;4942252;28;20817;-78
2022/03/03 08:48:30;;;;;;;2.80;2.33;;;;;;;;;;4944214;28;20948;-78
2022/03/03 08:50:59;;;;;;;3.07;2.83;;;;;;;;;;4944918;29;20628;-73
2022/03/03 08:53:27;;;;;;;0.43;0.37;;;;;;;;;;4946642;29;20231;-75
2022/03/03 08:55:55;;;;;;;0.00;0.00;;;;;;;;;;4952079;29;20202;-80
2022/03/03 08:58:23;;;;;;;0.53;0.53;;;;;;;;;;4953759;29;20214;-75
2022/03/03 09:00:51;;;;;;;0.87;0.87;;;;;;;;;;4952060;28;20234;-75
2022/03/03 09:03:21;;;;;;;3.53;2.47;;;;;;;;;;4952605;29;20684;-77
2022/03/03 09:05:49;;;;;;;0.67;0.67;;;;;;;;;;4950736;29;20203;-73
2022/03/03 09:08:17;;;;;;;0.60;0.47;;;;;;;;;;4952119;28;20203;-77
2022/03/03 09:10:45;;;;;;;2.13;2.00;;;;;;;;;;4951412;28;20218;-76
2022/03/03 09:13:13;;;;;;;2.40;2.20;;;;;;;;;;4953118;29;20213;-72
2022/03/03 09:15:40;;;;;;;4.30;2.67;;;;;;;;;;4953607;28;20246;-74
2022/03/03 09:18:08;;;;;;;0.10;0.10;;;;;;;;;;4952201;28;20210;-77
2022/03/03 09:20:35;;;;;;;2.03;1.27;;;;;;;;;;4960277;28;20234;-78
2022/03/03 09:23:03;;;;;;;3.10;2.27;;;;;;;;;;4954468;29;20282;-77
2022/03/03 09:25:36;;;;;;;5.70;3.60;;;;;;;;;;4950280;28;20198;-74
2022/03/03 09:28:03;;;;;;;1.73;1.30;;;;;;;;;;4953307;29;20603;-79
2022/03/03 09:30:31;;;;;;;2.13;1.47;;;;;;;;;;4952453;29;20215;-76
2022/03/03 09:32:58;;;;;;;3.23;1.60;;;;;;;;;;4952536;28;20199;-79
2022/03/03 09:35:26;;;;;;;3.00;2.63;;;;;;;;;;4950126;29;20195;-76
2022/03/03 09:37:54;;;;;;;7.07;4.43;;;;;;;;;;4953457;28;20231;-76
2022/03/03 09:40:22;;;;;;;4.23;2.70;;;;;;;;;;4952690;29;20235;-76
2022/03/03 09:42:57;;;;;;;2.87;2.67;;;;;;;;;;4950916;29;20218;-77
2022/03/03 09:45:25;;;;;;;4.17;3.00;;;;;;;;;;4952155;29;20202;-78
2022/03/03 09:47:54;;;;;;;3.17;2.20;;;;;;;;;;4953469;29;20214;-77
2022/03/03 09:50:22;;;;;;;2.00;1.87;;;;;;;;;;4950792;29;20217;-76
2022/03/03 09:52:50;;;;;;;1.60;1.33;;;;;;;;;;4948898;28;20215;-74
2022/03/03 09:55:18;;;;;;;4.20;2.77;;;;;;;;;;4946163;28;20258;-73
2022/03/03 09:57:46;;;;;;;0.30;0.30;;;;;;;;;;4952474;28;20200;-78
2022/03/03 10:00:15;;;;;;;2.10;1.97;;;;;;;;;;4951096;29;20207;-79
2022/03/03 10:02:56;;;;;;;2.50;2.30;;;;;;;;;;4951216;29;20199;-72
2022/03/03 10:05:30;;;;;;;5.73;2.87;;;;;;;;;;4948522;28;20297;-74
2022/03/03 10:08:01;;;;;;;6.30;2.87;;;;;;;;;;4951583;28;20202;-73
2022/03/03 10:10:28;;;;;;;9.40;5.97;;;;;;;;;;4951778;28;20728;-74
2022/03/03 10:12:58;;;;;;;1.93;1.40;;;;;;;;;;4950748;28;20198;-74
2022/03/03 10:15:31;;;;;;;3.10;1.97;;;;;;;;;;4951117;29;20669;-74
2022/03/03 10:18:00;;;;;;;5.07;3.07;;;;;;;;;;4948893;29;20208;-73
2022/03/03 10:20:28;;;;;;;2.33;1.73;;;;;;;;;;4952028;29;20668;-74
2022/03/03 10:22:59;;;;;;;3.83;2.20;;;;;;;;;;4951586;28;20672;-73
2022/03/03 10:25:32;;;;;;;7.43;3.70;;;;;;;;;;4951010;28;20194;-75
2022/03/03 10:28:07;;;;;;;5.20;3.30;;;;;;;;;;4951172;29;20208;-73
2022/03/03 10:30:50;;;;;;;1.87;1.40;;;;;;;;;;4950425;28;20690;-77
2022/03/03 10:33:18;;;;;;;1.23;1.23;;;;;;;;;;4952338;28;20203;-79
2022/03/03 10:35:58;;;;;;;5.67;3.00;;;;;;;;;;4961821;28;20278;-72
2022/03/03 10:38:26;;;;;;;8.13;5.47;;;;;;;;;;4968541;28;20199;-73
2022/03/03 10:40:53;;;;;;;2.77;1.33;;;;;;;;;;4974823;28;20241;-73
2022/03/03 10:43:20;;;;;;;5.67;3.27;;;;;;;;;;4973376;28;20230;-72
2022/03/03 10:45:56;;;;;;;6.70;4.23;;;;;;;;;;4972145;29;20203;-73
2022/03/03 10:48:24;;;;;;;8.10;4.90;;;;;;;;;;4970311;29;20209;-72
2022/03/03 10:50:54;;;;;;;3.00;1.30;;;;;;;;;;4971761;29;20286;-72
2022/03/03 10:53:22;;;;;;;3.23;2.93;;;;;;;;;;4969492;28;20265;-73
2022/03/03 10:56:04;;;;;;;8.37;3.40;;;;;;;;;;4969256;28;20299;-71
2022/03/03 10:58:44;;;;;;;2.03;1.93;;;;;;;;;;4970829;29;20689;-72
2022/03/03 11:01:14;;;;;;;1.47;1.37;;;;;;;;;;4966776;29;20214;-71
2022/03/03 11:03:44;;;;;;;2.77;2.57;;;;;;;;;;4949535;28;20203;-73
2022/03/03 11:06:11;;;;;;;3.10;2.60;;;;;;;;;;4949547;28;20214;-73
2022/03/03 11:08:39;;;;;;;3.53;3.23;;;;;;;;;;4949168;28;20667;-74
2022/03/03 11:11:06;;;;;;;5.67;4.83;;;;;;;;;;4952835;28;20269;-73
2022/03/03 11:13:34;;;;;;;1.83;1.67;;;;;;;;;;4953720;28;20750;-73
2022/03/03 11:16:02;;;;;;;3.83;2.70;;;;;;;;;;4948911;29;20584;-71
2022/03/03 11:18:32;;;;;;;1.00;0.90;;;;;;;;;;4948872;28;20221;-71
2022/03/03 11:20:59;;;;;;;1.17;1.07;;;;;;;;;;4949833;28;20237;-71
2022/03/03 11:23:37;;;;;;;7.13;4.03;;;;;;;;;;4951440;29;20215;-72
2022/03/03 11:26:06;;;;;;;2.93;2.73;;;;;;;;;;4948851;29;20692;-73
2022/03/03 11:28:37;;;;;;;3.13;2.53;;;;;;;;;;4950106;29;20203;-73
2022/03/03 11:31:19;;;;;;;9.23;5.93;;;;;;;;;;4949021;29;20207;-73
2022/03/03 11:33:48;;;;;;;0.80;0.80;;;;;;;;;;4947423;28;20242;-73
2022/03/03 11:36:20;;;;;;;8.37;4.93;;;;;;;;;;4950049;29;20203;-73
2022/03/03 11:38:53;;;;;;;2.00;1.90;;;;;;;;;;4949475;28;20210;-70
2022/03/03 11:41:23;;;;;;;1.60;1.50;;;;;;;;;;4950577;28;20222;-72
2022/03/03 11:43:59;;;;;;;0.97;0.97;;;;;;;;;;4954877;28;20209;-72
2022/03/03 11:46:45;;;;;;;0.27;0.27;;;;;;;;;;4954713;28;20202;-72
2022/03/03 11:49:18;;;;;;;5.53;3.63;;;;;;;;;;4946727;28;20219;-71
2022/03/03 11:51:45;;;;;;;1.50;1.17;;;;;;;;;;4956219;28;20195;-77
2022/03/03 11:54:14;;;;;;;4.70;4.10;;;;;;;;;;4952585;28;20233;-73
2022/03/03 11:56:56;;;;;;;1.63;1.53;;;;;;;;;;4954232;28;20505;-73
2022/03/03 11:59:34;;;;;;;2.47;2.33;;;;;;;;;;4955817;28;20207;-73
2022/03/03 12:02:02;;;;;;;1.70;1.60;;;;;;;;;;4948473;28;20234;-72
2022/03/03 12:04:30;;;;;;;2.27;0.83;;;;;;;;;;4952138;28;20205;-71
2022/03/03 12:06:58;;;;;;;1.03;0.90;;;;;;;;;;4955840;28;20214;-70
2022/03/03 12:09:26;;;;;;;1.33;1.23;;;;;;;;;;4954859;28;21165;-72
2022/03/03 12:12:11;;;;;;;2.17;1.17;;;;;;;;;;4954949;28;20199;-71
2022/03/03 12:14:40;;;;;;;3.30;2.33;;;;;;;;;;4946713;29;20708;-71
2022/03/03 12:17:26;;;;;;;3.20;1.70;;;;;;;;;;4950461;28;20202;-70
2022/03/03 12:19:55;;;;;;;3.00;2.77;;;;;;;;;;4952536;28;20209;-72
2022/03/03 12:22:25;;;;;;;2.43;2.23;;;;;;;;;;4954515;29;20242;-71
2022/03/03 12:24:53;;;;;;;0.67;0.60;;;;;;;;;;4955169;29;20219;-72
2022/03/03 12:27:20;;;;;;;1.80;1.70;;;;;;;;;;4955567;28;20217;-73
2022/03/03 12:29:56;;;;;;;1.93;1.60;;;;;;;;;;4953135;28;20211;-71
2022/03/03 12:32:31;;;;;;;5.67;2.10;;;;;;;;;;4955340;29;20203;-71
2022/03/03 12:35:01;;;;;;;2.70;2.50;;;;;;;;;;4954689;28;20206;-70
2022/03/03 12:37:29;;;;;;;0.97;0.80;;;;;;;;;;4951899;29;20688;-71
2022/03/03 12:39:57;;;;;;;3.90;2.80;;;;;;;;;;4951397;28;20214;-72
2022/03/03 12:42:28;;;;;;;1.80;1.70;;;;;;;;;;4953131;28;20230;-72
2022/03/03 12:44:56;;;;;;;4.23;1.47;;;;;;;;;;4953565;28;20676;-71
2022/03/03 12:47:31;;;;;;;0.97;0.97;;;;;;;;;;4953762;29;20242;-73
2022/03/03 12:50:04;;;;;;;0.33;0.33;;;;;;;;;;4953301;29;20202;-72
2022/03/03 12:52:31;;;;;;;2.10;1.90;;;;;;;;;;4948748;28;20207;-71
2022/03/03 12:54:58;;;;;;;4.80;2.47;;;;;;;;;;4949313;28;20607;-71
2022/03/03 12:57:33;;;;;;;3.97;3.63;;;;;;;;;;4956587;28;20206;-71
2022/03/03 13:00:02;;;;;;;2.40;2.20;;;;;;;;;;4953250;29;20687;-71
2022/03/03 13:02:29;;;;;;;1.90;1.50;;;;;;;;;;4957156;28;20237;-71
2022/03/03 13:04:57;;;;;;;0.00;0.00;;;;;;;;;;4953491;28;20199;-71
2022/03/03 13:07:40;;;;;;;7.10;4.20;;;;;;;;;;4953750;28;20699;-71
2022/03/03 13:10:08;;;;;;;1.60;1.50;;;;;;;;;;4951637;29;20219;-71
2022/03/03 13:12:45;;;;;;;3.63;2.03;;;;;;;;;;4954166;28;20578;-72
2022/03/03 13:15:13;;;;;;;0.67;0.67;;;;;;;;;;4951022;28;20253;-71
2022/03/03 13:17:55;;;;;;;3.50;2.73;;;;;;;;;;4953543;28;20202;-71
2022/03/03 13:20:22;;;;;;;3.70;2.00;;;;;;;;;;4951962;28;20307;-71
2022/03/03 13:22:51;;;;;;;1.63;1.37;;;;;;;;;;4954628;28;20249;-71
2022/03/03 13:25:20;;;;;;;1.67;1.57;;;;;;;;;;4954086;28;20703;-71
2022/03/03 13:27:47;;;;;;;2.80;2.60;;;;;;;;;;4952882;28;20237;-71
2022/03/03 13:30:16;;;;;;;1.43;1.33;;;;;;;;;;4954346;28;20191;-71
2022/03/03 13:32:44;;;;;;;0.30;0.30;;;;;;;;;;4954341;29;20261;-71
2022/03/03 13:35:11;;;;;;;0.87;0.87;;;;;;;;;;4950484;28;20207;-71
2022/03/03 13:37:39;;;;;;;1.97;1.70;;;;;;;;;;4953636;28;20207;-71
2022/03/03 13:40:15;;;;;;;0.40;0.40;;;;;;;;;;4950139;29;20298;-72
2022/03/03 13:42:42;;;;;;;10.13;4.13;;;;;;;;;;4951260;28;20601;-72
2022/03/03 13:45:10;;;;;;;1.60;1.50;;;;;;;;;;4952867;28;20297;-71
2022/03/03 13:47:42;;;;;;;1.57;1.47;;;;;;;;;;4950108;29;20195;-71
2022/03/03 13:50:17;;;;;;;4.20;3.07;;;;;;;;;;4949016;29;20290;-69
2022/03/03 13:52:44;;;;;;;0.40;0.40;;;;;;;;;;4953256;29;20199;-72
2022/03/03 13:55:17;;;;;;;1.33;1.23;;;;;;;;;;4954666;28;20238;-72
2022/03/03 13:57:45;;;;;;;0.35;0.10;;;;;;;;;;4952493;29;20564;-70
2022/03/03 14:00:24;;;;;;;1.73;1.57;;;;;;;;;;4953786;29;20238;-70
2022/03/03 14:02:56;;;;;;;1.45;0.57;;;;;;;;;;4953538;29;20231;-71
2022/03/03 14:05:41;;;;;;;3.13;2.83;;;;;;;;;;4954231;28;20199;-71
2022/03/03 14:08:19;;;;;;;6.70;3.87;;;;;;;;;;4951837;28;20206;-70
2022/03/03 14:10:49;;;;;;;2.13;2.00;;;;;;;;;;4952275;28;20342;-71
2022/03/03 14:13:17;;;;;;;0.47;0.47;;;;;;;;;;4952236;29;20213;-71
2022/03/03 14:15:46;;;;;;;1.93;1.80;;;;;;;;;;4953190;28;20222;-72
2022/03/03 14:18:15;;;;;;;0.77;0.77;;;;;;;;;;4953145;29;20731;-71
2022/03/03 14:20:42;;;;;;;1.23;0.90;;;;;;;;;;4951800;28;20210;-71
2022/03/03 14:23:10;;;;;;;3.93;2.67;;;;;;;;;;4953014;29;20624;-71
2022/03/03 14:25:37;;;;;;;2.70;2.13;;;;;;;;;;4951947;28;20286;-71
2022/03/03 14:28:06;;;;;;;4.43;2.77;;;;;;;;;;4953076;29;20240;-72
2022/03/03 14:30:34;;;;;;;0.67;0.67;;;;;;;;;;4951807;29;20199;-72
2022/03/03 14:33:01;;;;;;;4.73;1.40;;;;;;;;;;4952610;28;20203;-71
2022/03/03 14:35:28;;;;;;;4.20;3.90;;;;;;;;;;4952216;28;20675;-72
2022/03/03 14:37:56;;;;;;;2.77;2.53;;;;;;;;;;4950677;28;20207;-71
2022/03/03 14:40:23;;;;;;;1.43;1.33;;;;;;;;;;4953274;28;20226;-72
2022/03/03 14:42:51;;;;;;;1.00;1.00;;;;;;;;;;4951262;29;20238;-71
2022/03/03 14:45:20;;;;;;;5.50;0.90;;;;;;;;;;4951883;28;20548;-72
2022/03/03 14:47:47;;;;;;;0.40;0.40;;;;;;;;;;4953381;28;20207;-72
2022/03/03 14:50:15;;;;;;;0.87;0.87;;;;;;;;;;4949257;28;20213;-73
2022/03/03 14:52:43;;;;;;;0.10;0.10;;;;;;;;;;4952529;28;20218;-71
2022/03/03 14:55:11;;;;;;;0.20;0.20;;;;;;;;;;4952708;28;20285;-72